DAL1123 KATL-KVPS
Flight info
| Callsign | DAL1123 |
|---|---|
| Flight time | 0h 46m |
| Altitude | 22000 |
| Route | HAALO3 SARGE DARED CORKY |
| Aircraft | B739/M-SDE2E3FGHIRWXY/LB1 |
Departure
| Time | 2026-05-07 20:23 |
|---|---|
| Airport | Hartsfield Jackson Atlanta International Airport (KATL) |
Arrival
| Time | 2026-05-07 21:09 |
|---|---|
| Airport | Destin-Fort Walton Beach Airport (KVPS) |
| Time | Latitude | Longitude | Altitude | Speed | Heading |
|---|---|---|---|---|---|
| 2026-05-07 20:07 | 33.63793 | -84.43641 | 1005 ft | 0 kts | 90° |
| 2026-05-07 20:13 | 33.63794 | -84.43660 | 1005 ft | 4 kts | 92° |
| 2026-05-07 20:13 | 33.63797 | -84.43692 | 1005 ft | 4 kts | 104° |
| 2026-05-07 20:14 | 33.63807 | -84.43720 | 1005 ft | 3 kts | 134° |
| 2026-05-07 20:14 | 33.63809 | -84.43723 | 1005 ft | 0 kts | 135° |
| 2026-05-07 20:17 | 33.63808 | -84.43721 | 1005 ft | 1 kts | 140° |
| 2026-05-07 20:17 | 33.63788 | -84.43720 | 1005 ft | 5 kts | 179° |
| 2026-05-07 20:18 | 33.63744 | -84.43720 | 1005 ft | 9 kts | 179° |
| 2026-05-07 20:18 | 33.63671 | -84.43681 | 1005 ft | 13 kts | 121° |
| 2026-05-07 20:18 | 33.63665 | -84.43572 | 1005 ft | 15 kts | 90° |
| 2026-05-07 20:18 | 33.63664 | -84.43415 | 1005 ft | 23 kts | 90° |
| 2026-05-07 20:19 | 33.63665 | -84.43200 | 1005 ft | 27 kts | 89° |
| 2026-05-07 20:19 | 33.63665 | -84.42986 | 1005 ft | 25 kts | 91° |
| 2026-05-07 20:19 | 33.63662 | -84.42787 | 1005 ft | 23 kts | 97° |
| 2026-05-07 20:19 | 33.63655 | -84.42583 | 1006 ft | 26 kts | 89° |
| 2026-05-07 20:20 | 33.63654 | -84.42358 | 1006 ft | 27 kts | 91° |
| 2026-05-07 20:20 | 33.63626 | -84.42144 | 1006 ft | 25 kts | 112° |
| 2026-05-07 20:20 | 33.63580 | -84.41955 | 1005 ft | 23 kts | 91° |
| 2026-05-07 20:20 | 33.63583 | -84.41766 | 1005 ft | 22 kts | 90° |
| 2026-05-07 20:21 | 33.63582 | -84.41582 | 1005 ft | 22 kts | 90° |
| 2026-05-07 20:21 | 33.63581 | -84.41403 | 1004 ft | 21 kts | 89° |
| 2026-05-07 20:21 | 33.63583 | -84.41230 | 1005 ft | 20 kts | 90° |
| 2026-05-07 20:21 | 33.63581 | -84.41062 | 1005 ft | 20 kts | 90° |
| 2026-05-07 20:22 | 33.63559 | -84.40917 | 1005 ft | 16 kts | 145° |
| 2026-05-07 20:22 | 33.63480 | -84.40943 | 1006 ft | 12 kts | 250° |
| 2026-05-07 20:22 | 33.63472 | -84.41063 | 1005 ft | 27 kts | 271° |
| 2026-05-07 20:22 | 33.63472 | -84.41577 | 1004 ft | 95 kts | 270° |
| 2026-05-07 20:23 | 33.63472 | -84.42607 | 1005 ft | 149 kts | 270° |
| 2026-05-07 20:23 | 33.63504 | -84.44009 | 1205 ft | 177 kts | 270° |
| 2026-05-07 20:23 | 33.63444 | -84.45495 | 1877 ft | 179 kts | 273° |
| 2026-05-07 20:23 | 33.63442 | -84.46953 | 2665 ft | 172 kts | 273° |
| 2026-05-07 20:24 | 33.63452 | -84.48411 | 3230 ft | 180 kts | 272° |
| 2026-05-07 20:24 | 33.63461 | -84.49962 | 3659 ft | 192 kts | 270° |
| 2026-05-07 20:24 | 33.63462 | -84.51604 | 4016 ft | 208 kts | 270° |
| 2026-05-07 20:24 | 33.63456 | -84.53430 | 4262 ft | 229 kts | 270° |
| 2026-05-07 20:25 | 33.63459 | -84.55474 | 4348 ft | 261 kts | 270° |
| 2026-05-07 20:25 | 33.63465 | -84.56951 | 4696 ft | 269 kts | 269° |
| 2026-05-07 20:25 | 33.63461 | -84.59137 | 5921 ft | 251 kts | 270° |
| 2026-05-07 20:25 | 33.63459 | -84.61180 | 7010 ft | 245 kts | 270° |
| 2026-05-07 20:26 | 33.63452 | -84.63262 | 7616 ft | 253 kts | 265° |
| 2026-05-07 20:26 | 33.62891 | -84.65244 | 8436 ft | 255 kts | 241° |
| 2026-05-07 20:26 | 33.61732 | -84.66899 | 9157 ft | 264 kts | 230° |
| 2026-05-07 20:26 | 33.60269 | -84.68255 | 9967 ft | 270 kts | 215° |
| 2026-05-07 20:27 | 33.58553 | -84.69234 | 10627 ft | 282 kts | 206° |
| 2026-05-07 20:27 | 33.56469 | -84.69512 | 10770 ft | 323 kts | 186° |
| 2026-05-07 20:27 | 33.54148 | -84.69213 | 11105 ft | 343 kts | 179° |
| 2026-05-07 20:27 | 33.51759 | -84.68714 | 11511 ft | 357 kts | 179° |
| 2026-05-07 20:28 | 33.49239 | -84.68194 | 11640 ft | 377 kts | 179° |
| 2026-05-07 20:28 | 33.46664 | -84.67690 | 11759 ft | 394 kts | 179° |
| 2026-05-07 20:28 | 33.43827 | -84.67152 | 11895 ft | 409 kts | 179° |
| 2026-05-07 20:28 | 33.40983 | -84.66615 | 12205 ft | 418 kts | 179° |
| 2026-05-07 20:29 | 33.38097 | -84.66076 | 12679 ft | 420 kts | 180° |
| 2026-05-07 20:29 | 33.35197 | -84.65537 | 13153 ft | 423 kts | 180° |
| 2026-05-07 20:29 | 33.32274 | -84.64995 | 13604 ft | 427 kts | 181° |
| 2026-05-07 20:29 | 33.29325 | -84.64450 | 13998 ft | 430 kts | 181° |
| 2026-05-07 20:30 | 33.26366 | -84.63901 | 14464 ft | 431 kts | 181° |
| 2026-05-07 20:30 | 33.23404 | -84.63349 | 14972 ft | 430 kts | 181° |
| 2026-05-07 20:30 | 33.20447 | -84.62800 | 15455 ft | 430 kts | 182° |
| 2026-05-07 20:30 | 33.17488 | -84.62252 | 15897 ft | 431 kts | 182° |
| 2026-05-07 20:31 | 33.14525 | -84.61704 | 16310 ft | 432 kts | 182° |
| 2026-05-07 20:31 | 33.11544 | -84.61155 | 16674 ft | 434 kts | 182° |
| 2026-05-07 20:31 | 33.08557 | -84.60604 | 17081 ft | 435 kts | 182° |
| 2026-05-07 20:31 | 33.05563 | -84.60050 | 17503 ft | 435 kts | 182° |
| 2026-05-07 20:32 | 33.02564 | -84.59497 | 17883 ft | 437 kts | 182° |
| 2026-05-07 20:32 | 32.99555 | -84.58944 | 18224 ft | 439 kts | 182° |
| 2026-05-07 20:32 | 32.96559 | -84.58530 | 18523 ft | 433 kts | 187° |
| 2026-05-07 20:32 | 32.93555 | -84.58394 | 18797 ft | 431 kts | 190° |
| 2026-05-07 20:33 | 32.90559 | -84.58379 | 19083 ft | 432 kts | 191° |
| 2026-05-07 20:33 | 32.87547 | -84.58390 | 19352 ft | 434 kts | 191° |
| 2026-05-07 20:33 | 32.84561 | -84.58389 | 19596 ft | 436 kts | 190° |
| 2026-05-07 20:33 | 32.81477 | -84.58363 | 19845 ft | 439 kts | 189° |
| 2026-05-07 20:34 | 32.78419 | -84.58315 | 20087 ft | 441 kts | 189° |
| 2026-05-07 20:34 | 32.75418 | -84.58254 | 20336 ft | 443 kts | 189° |
| 2026-05-07 20:34 | 32.72335 | -84.58183 | 20584 ft | 444 kts | 189° |
| 2026-05-07 20:34 | 32.69232 | -84.58110 | 20816 ft | 446 kts | 189° |
| 2026-05-07 20:35 | 32.66166 | -84.58037 | 21041 ft | 447 kts | 189° |
| 2026-05-07 20:35 | 32.63045 | -84.57963 | 21246 ft | 449 kts | 189° |
| 2026-05-07 20:35 | 32.59913 | -84.57891 | 21460 ft | 451 kts | 188° |
| 2026-05-07 20:35 | 32.56772 | -84.57818 | 21669 ft | 452 kts | 188° |
| 2026-05-07 20:36 | 32.53620 | -84.57746 | 21884 ft | 453 kts | 188° |
| 2026-05-07 20:36 | 32.50472 | -84.57673 | 21931 ft | 454 kts | 188° |
| 2026-05-07 20:36 | 32.47306 | -84.57600 | 21935 ft | 455 kts | 188° |
| 2026-05-07 20:36 | 32.44144 | -84.57528 | 21943 ft | 455 kts | 188° |
| 2026-05-07 20:37 | 32.40977 | -84.57455 | 21949 ft | 455 kts | 188° |
| 2026-05-07 20:37 | 32.37816 | -84.57382 | 21948 ft | 455 kts | 188° |
| 2026-05-07 20:37 | 32.34653 | -84.57310 | 21950 ft | 455 kts | 188° |
| 2026-05-07 20:37 | 32.31544 | -84.57542 | 21932 ft | 438 kts | 202° |
| 2026-05-07 20:38 | 32.28727 | -84.58688 | 21948 ft | 421 kts | 214° |
| 2026-05-07 20:38 | 32.26310 | -84.60529 | 21953 ft | 409 kts | 226° |
| 2026-05-07 20:38 | 32.24150 | -84.62692 | 21950 ft | 407 kts | 227° |
| 2026-05-07 20:38 | 32.22006 | -84.64884 | 21939 ft | 407 kts | 227° |
| 2026-05-07 20:39 | 32.19864 | -84.67076 | 21947 ft | 407 kts | 227° |
| 2026-05-07 20:39 | 32.17715 | -84.69266 | 21934 ft | 408 kts | 227° |
| 2026-05-07 20:39 | 32.15565 | -84.71442 | 21941 ft | 408 kts | 227° |
| 2026-05-07 20:39 | 32.13403 | -84.73620 | 21939 ft | 408 kts | 227° |
| 2026-05-07 20:40 | 32.11237 | -84.75793 | 21944 ft | 409 kts | 227° |
| 2026-05-07 20:40 | 32.09069 | -84.77962 | 21940 ft | 409 kts | 226° |
| 2026-05-07 20:40 | 32.06902 | -84.80127 | 21960 ft | 409 kts | 226° |
| 2026-05-07 20:40 | 32.04727 | -84.82297 | 21954 ft | 409 kts | 226° |
| 2026-05-07 20:41 | 32.02551 | -84.84467 | 21961 ft | 409 kts | 226° |
| 2026-05-07 20:41 | 32.00378 | -84.86632 | 21966 ft | 410 kts | 226° |
| 2026-05-07 20:41 | 31.98202 | -84.88799 | 21970 ft | 410 kts | 226° |
| 2026-05-07 20:41 | 31.96021 | -84.90970 | 21964 ft | 411 kts | 226° |
| 2026-05-07 20:42 | 31.93839 | -84.93140 | 21972 ft | 411 kts | 226° |
| 2026-05-07 20:42 | 31.91655 | -84.95312 | 21971 ft | 411 kts | 226° |
| 2026-05-07 20:42 | 31.89473 | -84.97479 | 21977 ft | 411 kts | 226° |
| 2026-05-07 20:42 | 31.87286 | -84.99649 | 21972 ft | 411 kts | 226° |
| 2026-05-07 20:43 | 31.85100 | -85.01819 | 21973 ft | 411 kts | 226° |
| 2026-05-07 20:43 | 31.82913 | -85.03986 | 21983 ft | 411 kts | 226° |
| 2026-05-07 20:43 | 31.80722 | -85.06158 | 21968 ft | 412 kts | 226° |
| 2026-05-07 20:43 | 31.78531 | -85.08328 | 21972 ft | 412 kts | 226° |
| 2026-05-07 20:44 | 31.76341 | -85.10494 | 21992 ft | 412 kts | 226° |
| 2026-05-07 20:44 | 31.74144 | -85.12667 | 21968 ft | 413 kts | 226° |
| 2026-05-07 20:44 | 31.71943 | -85.14843 | 21962 ft | 413 kts | 226° |
| 2026-05-07 20:44 | 31.69744 | -85.17015 | 21967 ft | 414 kts | 226° |
| 2026-05-07 20:45 | 31.67534 | -85.19197 | 21959 ft | 414 kts | 226° |
| 2026-05-07 20:45 | 31.65328 | -85.21373 | 21976 ft | 414 kts | 226° |
| 2026-05-07 20:45 | 31.63146 | -85.23523 | 21961 ft | 415 kts | 226° |
| 2026-05-07 20:45 | 31.60938 | -85.25698 | 21970 ft | 415 kts | 226° |
| 2026-05-07 20:46 | 31.58723 | -85.27880 | 21960 ft | 416 kts | 226° |
| 2026-05-07 20:46 | 31.56507 | -85.30059 | 21973 ft | 416 kts | 226° |
| 2026-05-07 20:46 | 31.54287 | -85.32242 | 21988 ft | 416 kts | 226° |
| 2026-05-07 20:46 | 31.52072 | -85.34419 | 21990 ft | 416 kts | 226° |
| 2026-05-07 20:47 | 31.49851 | -85.36601 | 22003 ft | 417 kts | 226° |
| 2026-05-07 20:47 | 31.47624 | -85.38786 | 22005 ft | 417 kts | 226° |
| 2026-05-07 20:47 | 31.45396 | -85.40971 | 22012 ft | 418 kts | 226° |
| 2026-05-07 20:47 | 31.43167 | -85.43155 | 22015 ft | 418 kts | 226° |
| 2026-05-07 20:48 | 31.40929 | -85.45347 | 22012 ft | 418 kts | 226° |
| 2026-05-07 20:48 | 31.38706 | -85.47524 | 22020 ft | 419 kts | 226° |
| 2026-05-07 20:48 | 31.36467 | -85.49714 | 22017 ft | 419 kts | 226° |
| 2026-05-07 20:48 | 31.34239 | -85.51892 | 22022 ft | 419 kts | 226° |
| 2026-05-07 20:49 | 31.31986 | -85.54093 | 22021 ft | 420 kts | 226° |
| 2026-05-07 20:49 | 31.29757 | -85.56270 | 21956 ft | 421 kts | 226° |
| 2026-05-07 20:49 | 31.27513 | -85.58458 | 21749 ft | 416 kts | 226° |
| 2026-05-07 20:49 | 31.25283 | -85.60617 | 21488 ft | 411 kts | 224° |
| 2026-05-07 20:50 | 31.22976 | -85.62562 | 21262 ft | 413 kts | 221° |
| 2026-05-07 20:50 | 31.20607 | -85.64427 | 21018 ft | 413 kts | 220° |
| 2026-05-07 20:50 | 31.18200 | -85.66287 | 20480 ft | 412 kts | 219° |
| 2026-05-07 20:50 | 31.15811 | -85.68129 | 19829 ft | 406 kts | 219° |
| 2026-05-07 20:51 | 31.13481 | -85.69934 | 19132 ft | 401 kts | 219° |
| 2026-05-07 20:51 | 31.11194 | -85.71716 | 18479 ft | 396 kts | 219° |
| 2026-05-07 20:51 | 31.08903 | -85.73510 | 17717 ft | 393 kts | 219° |
| 2026-05-07 20:51 | 31.06636 | -85.75290 | 16995 ft | 388 kts | 219° |
| 2026-05-07 20:52 | 31.04426 | -85.77027 | 16340 ft | 385 kts | 220° |
| 2026-05-07 20:52 | 31.02217 | -85.78765 | 15673 ft | 381 kts | 220° |
| 2026-05-07 20:52 | 31.00033 | -85.80482 | 15041 ft | 379 kts | 220° |
| 2026-05-07 20:52 | 30.97838 | -85.82208 | 14393 ft | 377 kts | 220° |
| 2026-05-07 20:53 | 30.95692 | -85.83894 | 13730 ft | 376 kts | 220° |
| 2026-05-07 20:53 | 30.93516 | -85.85604 | 13007 ft | 374 kts | 219° |
| 2026-05-07 20:53 | 30.91380 | -85.87280 | 12347 ft | 371 kts | 219° |
| 2026-05-07 20:53 | 30.89224 | -85.88970 | 11708 ft | 368 kts | 219° |
| 2026-05-07 20:54 | 30.87126 | -85.90614 | 11237 ft | 363 kts | 219° |
| 2026-05-07 20:54 | 30.85057 | -85.92229 | 11055 ft | 348 kts | 219° |
| 2026-05-07 20:54 | 30.83080 | -85.93771 | 10906 ft | 334 kts | 219° |
| 2026-05-07 20:54 | 30.81192 | -85.95245 | 10761 ft | 321 kts | 219° |
| 2026-05-07 20:55 | 30.79380 | -85.96660 | 10625 ft | 309 kts | 219° |
| 2026-05-07 20:55 | 30.77612 | -85.98040 | 10500 ft | 298 kts | 219° |
| 2026-05-07 20:55 | 30.75935 | -85.99351 | 10373 ft | 287 kts | 219° |
| 2026-05-07 20:55 | 30.74289 | -86.00636 | 10255 ft | 277 kts | 219° |
| 2026-05-07 20:56 | 30.72735 | -86.01849 | 10145 ft | 267 kts | 220° |
| 2026-05-07 20:56 | 30.71151 | -86.02921 | 10018 ft | 262 kts | 209° |
| 2026-05-07 20:56 | 30.69386 | -86.03517 | 9767 ft | 265 kts | 197° |
| 2026-05-07 20:56 | 30.67607 | -86.03861 | 9537 ft | 261 kts | 196° |
| 2026-05-07 20:57 | 30.65804 | -86.04195 | 9238 ft | 258 kts | 196° |
| 2026-05-07 20:57 | 30.64031 | -86.04519 | 8973 ft | 255 kts | 195° |
| 2026-05-07 20:57 | 30.62306 | -86.04831 | 8723 ft | 249 kts | 195° |
| 2026-05-07 20:57 | 30.60639 | -86.05128 | 8511 ft | 240 kts | 196° |
| 2026-05-07 20:58 | 30.59023 | -86.05458 | 8214 ft | 231 kts | 207° |
| 2026-05-07 20:58 | 30.57640 | -86.06322 | 7847 ft | 223 kts | 219° |
| 2026-05-07 20:58 | 30.56457 | -86.07427 | 7450 ft | 220 kts | 229° |
| 2026-05-07 20:58 | 30.55367 | -86.08681 | 7182 ft | 217 kts | 231° |
| 2026-05-07 20:59 | 30.54322 | -86.09906 | 6875 ft | 213 kts | 230° |
| 2026-05-07 20:59 | 30.53261 | -86.11140 | 6427 ft | 215 kts | 230° |
| 2026-05-07 20:59 | 30.52214 | -86.12346 | 5982 ft | 214 kts | 229° |
| 2026-05-07 20:59 | 30.51148 | -86.13564 | 5530 ft | 214 kts | 229° |
| 2026-05-07 21:00 | 30.50096 | -86.14759 | 5097 ft | 213 kts | 229° |
| 2026-05-07 21:00 | 30.49026 | -86.15970 | 4668 ft | 212 kts | 228° |
| 2026-05-07 21:00 | 30.47977 | -86.17153 | 4189 ft | 213 kts | 227° |
| 2026-05-07 21:00 | 30.46916 | -86.18346 | 3732 ft | 212 kts | 227° |
| 2026-05-07 21:01 | 30.46007 | -86.19366 | 3328 ft | 213 kts | 228° |
| 2026-05-07 21:01 | 30.44957 | -86.20543 | 3117 ft | 210 kts | 227° |
| 2026-05-07 21:01 | 30.43897 | -86.21730 | 3074 ft | 211 kts | 227° |
| 2026-05-07 21:01 | 30.42832 | -86.22924 | 3110 ft | 216 kts | 226° |
| 2026-05-07 21:02 | 30.41745 | -86.24140 | 3040 ft | 222 kts | 229° |
| 2026-05-07 21:02 | 30.40636 | -86.25379 | 2962 ft | 216 kts | 227° |
| 2026-05-07 21:02 | 30.39602 | -86.26530 | 2934 ft | 200 kts | 227° |
| 2026-05-07 21:02 | 30.38628 | -86.27614 | 2955 ft | 185 kts | 227° |
| 2026-05-07 21:03 | 30.37725 | -86.28619 | 2970 ft | 178 kts | 227° |
| 2026-05-07 21:03 | 30.37063 | -86.29764 | 2978 ft | 170 kts | 262° |
| 2026-05-07 21:03 | 30.37316 | -86.31066 | 3023 ft | 173 kts | 292° |
| 2026-05-07 21:03 | 30.37811 | -86.32362 | 3023 ft | 177 kts | 289° |
| 2026-05-07 21:04 | 30.38338 | -86.33692 | 2968 ft | 184 kts | 293° |
| 2026-05-07 21:04 | 30.38923 | -86.34983 | 2785 ft | 178 kts | 294° |
| 2026-05-07 21:04 | 30.39515 | -86.36223 | 2614 ft | 173 kts | 295° |
| 2026-05-07 21:04 | 30.40107 | -86.37439 | 2420 ft | 173 kts | 295° |
| 2026-05-07 21:05 | 30.40700 | -86.38648 | 2248 ft | 173 kts | 295° |
| 2026-05-07 21:05 | 30.41302 | -86.39873 | 2071 ft | 179 kts | 295° |
| 2026-05-07 21:05 | 30.41927 | -86.41144 | 1817 ft | 180 kts | 296° |
| 2026-05-07 21:05 | 30.42518 | -86.42336 | 1625 ft | 162 kts | 296° |
| 2026-05-07 21:06 | 30.43042 | -86.43394 | 1479 ft | 138 kts | 296° |
| 2026-05-07 21:06 | 30.43515 | -86.44360 | 1389 ft | 137 kts | 295° |
| 2026-05-07 21:06 | 30.43990 | -86.45319 | 1215 ft | 139 kts | 296° |
| 2026-05-07 21:06 | 30.44471 | -86.46285 | 1024 ft | 136 kts | 296° |
| 2026-05-07 21:07 | 30.44863 | -86.47082 | 912 ft | 136 kts | 295° |
| 2026-05-07 21:07 | 30.45350 | -86.48079 | 738 ft | 139 kts | 297° |
| 2026-05-07 21:07 | 30.45845 | -86.49080 | 593 ft | 147 kts | 298° |
| 2026-05-07 21:07 | 30.46376 | -86.50154 | 477 ft | 155 kts | 300° |
| 2026-05-07 21:08 | 30.46880 | -86.51170 | 269 ft | 142 kts | 298° |
| 2026-05-07 21:08 | 30.47375 | -86.52166 | 111 ft | 140 kts | 297° |
| 2026-05-07 21:08 | 30.47810 | -86.53054 | 98 ft | 111 kts | 299° |
| 2026-05-07 21:08 | 30.48031 | -86.53505 | 100 ft | 83 kts | 299° |
| 2026-05-07 21:09 | 30.48379 | -86.54211 | 99 ft | 68 kts | 300° |
| 2026-05-07 21:09 | 30.48525 | -86.54511 | 101 ft | 61 kts | 299° |
| 2026-05-07 21:09 | 30.48762 | -86.54987 | 105 ft | 38 kts | 300° |
| 2026-05-07 21:09 | 30.48870 | -86.55171 | 101 ft | 19 kts | 336° |
| 2026-05-07 21:10 | 30.48953 | -86.55149 | 102 ft | 18 kts | 28° |
| 2026-05-07 21:10 | 30.49052 | -86.55087 | 101 ft | 14 kts | 29° |
| 2026-05-07 21:10 | 30.49130 | -86.55034 | 100 ft | 12 kts | 31° |
| 2026-05-07 21:10 | 30.49194 | -86.54997 | 98 ft | 10 kts | 20° |
| 2026-05-07 21:11 | 30.49267 | -86.54984 | 94 ft | 11 kts | 2° |
| 2026-05-07 21:11 | 30.49311 | -86.54942 | 95 ft | 6 kts | 79° |
| 2026-05-07 21:11 | 30.49329 | -86.54848 | 95 ft | 11 kts | 31° |
| 2026-05-07 21:12 | 30.49402 | -86.54837 | 95 ft | 11 kts | 2° |
| 2026-05-07 21:12 | 30.49461 | -86.54865 | 94 ft | 7 kts | 299° |
| 2026-05-07 21:12 | 30.49472 | -86.54899 | 95 ft | 0 kts | 291° |